createdAt,value
2023-05-02T00:01:12.214Z,3.40
2023-05-02T00:03:42.378Z,3.35
2023-05-02T00:06:12.358Z,3.17
2023-05-02T00:08:43.122Z,3.33
2023-05-02T00:11:12.539Z,2.92
2023-05-02T00:13:41.896Z,2.60
2023-05-02T00:16:11.438Z,2.70
2023-05-02T00:18:40.834Z,3.22
2023-05-02T00:21:10.424Z,2.45
2023-05-02T00:23:39.729Z,2.58
2023-05-02T00:26:12.941Z,2.70
2023-05-02T00:28:42.361Z,2.63
2023-05-02T00:31:11.861Z,2.55
2023-05-02T00:33:41.426Z,2.20
2023-05-02T00:36:18.380Z,1.98
2023-05-02T00:38:48.066Z,2.50
2023-05-02T00:41:19.577Z,1.83
2023-05-02T00:43:48.880Z,2.10
2023-05-02T00:49:50.398Z,2.08
2023-05-02T00:52:21.007Z,1.88
2023-05-02T00:54:50.580Z,1.65
2023-05-02T00:57:19.965Z,1.80
2023-05-02T00:59:49.463Z,1.60
2023-05-02T01:02:35.980Z,1.75
2023-05-02T01:05:18.200Z,1.80
2023-05-02T01:08:05.392Z,1.93
2023-05-02T01:10:51.228Z,1.55
2023-05-02T01:13:24.524Z,1.95
2023-05-02T01:15:55.829Z,2.17
2023-05-02T01:18:29.846Z,2.00
2023-05-02T01:21:05.305Z,1.58
2023-05-02T01:23:48.678Z,1.42
2023-05-02T01:26:26.361Z,2.08
2023-05-02T01:29:02.559Z,1.90
2023-05-02T01:31:37.722Z,1.75
2023-05-02T01:34:11.640Z,1.65
2023-05-02T01:36:46.920Z,1.08
2023-05-02T01:39:22.262Z,1.50
2023-05-02T01:41:55.049Z,1.67
2023-05-02T01:46:59.195Z,1.00
2023-05-02T01:49:29.956Z,1.13
2023-05-02T01:52:04.058Z,1.20
2023-05-02T01:54:37.360Z,1.10
2023-05-02T01:57:10.437Z,0.90
2023-05-02T01:59:44.646Z,0.60
2023-05-02T02:02:16.864Z,0.82
2023-05-02T02:04:49.148Z,0.70
2023-05-02T02:07:18.545Z,0.68
2023-05-02T02:09:47.831Z,0.50
2023-05-02T02:12:29.600Z,1.02
2023-05-02T02:15:11.681Z,0.68
2023-05-02T02:17:45.760Z,0.60
2023-05-02T02:20:17.654Z,0.55
2023-05-02T02:22:48.435Z,0.90
2023-05-02T02:25:19.448Z,0.90
2023-05-02T02:27:50.384Z,0.80
2023-05-02T02:30:21.232Z,0.93
2023-05-02T02:32:50.827Z,0.40
2023-05-02T02:35:20.383Z,0.40
2023-05-02T02:37:56.983Z,0.50
2023-05-02T02:40:33.318Z,0.90
2023-05-02T02:43:13.056Z,0.45
2023-05-02T02:45:56.733Z,0.20
2023-05-02T02:48:37.721Z,0.40
2023-05-02T02:51:16.220Z,0.32
2023-05-02T02:54:05.939Z,0.50
2023-05-02T02:56:44.273Z,0.50
2023-05-02T02:59:22.337Z,0.43
2023-05-02T03:02:03.980Z,0.22
2023-05-02T03:04:35.847Z,0.20
2023-05-02T03:07:05.438Z,0.43
2023-05-02T03:09:44.141Z,0.68
2023-05-02T03:12:13.758Z,0.40
2023-05-02T03:14:43.829Z,0.50
2023-05-02T03:17:14.756Z,0.45
2023-05-02T03:19:44.182Z,0.82
2023-05-02T03:22:13.528Z,0.47
2023-05-02T03:24:42.924Z,0.40
2023-05-02T03:27:12.483Z,0.38
2023-05-02T03:29:41.835Z,0.50
2023-05-02T03:32:11.533Z,0.30
2023-05-02T03:34:43.198Z,0.57
2023-05-02T03:37:12.742Z,1.75
2023-05-02T03:39:42.281Z,0.52
2023-05-02T03:42:11.690Z,0.93
2023-05-02T03:44:41.038Z,1.05
2023-05-02T03:47:10.564Z,0.80
2023-05-02T03:50:50.288Z,0.55
2023-05-02T03:53:19.828Z,1.05
2023-05-02T03:55:49.298Z,1.40
2023-05-02T03:58:18.766Z,1.38
2023-05-02T04:00:48.056Z,0.60
2023-05-02T04:03:17.621Z,1.63
2023-05-02T04:05:48.610Z,2.50
2023-05-02T04:08:18.159Z,2.70
2023-05-02T04:10:47.538Z,1.05
2023-05-02T04:13:17.179Z,0.77
2023-05-02T04:15:47.984Z,1.75
2023-05-02T04:18:17.489Z,0.82
2023-05-02T04:20:48.436Z,0.80
2023-05-02T04:23:17.962Z,0.50
2023-05-02T04:25:54.876Z,0.73
2023-05-02T04:28:25.023Z,1.13
2023-05-02T04:30:54.886Z,0.82
2023-05-02T04:33:24.317Z,1.20
2023-05-02T04:35:55.110Z,0.88
2023-05-02T04:38:24.634Z,1.50
2023-05-02T04:40:54.370Z,1.13
2023-05-02T04:43:24.868Z,1.35
2023-05-02T04:45:54.405Z,1.17
2023-05-02T04:48:23.891Z,0.68
2023-05-02T04:50:54.968Z,0.40
2023-05-02T04:53:24.922Z,0.40
2023-05-02T04:55:54.338Z,0.30
2023-05-02T04:58:23.775Z,0.40
2023-05-02T05:00:53.111Z,0.43
2023-05-02T05:03:22.607Z,0.15
2023-05-02T05:05:53.499Z,0.32
2023-05-02T05:08:22.916Z,0.50
2023-05-02T05:10:53.000Z,0.40
2023-05-02T05:13:22.298Z,0.15
2023-05-02T05:15:51.784Z,0.10
2023-05-02T05:18:21.416Z,0.10
2023-05-02T05:20:50.848Z,0.30
2023-05-02T05:23:21.753Z,0.10
2023-05-02T05:25:51.578Z,0.22
2023-05-02T05:28:21.021Z,0.13
2023-05-02T05:30:50.300Z,0.20
2023-05-02T05:33:19.991Z,0.10
2023-05-02T05:35:49.578Z,0.28
2023-05-02T05:38:20.385Z,0.17
2023-05-02T05:40:52.297Z,0.20
2023-05-02T05:43:21.698Z,0.20
2023-05-02T05:45:53.124Z,0.30
2023-05-02T05:48:22.699Z,0.13
2023-05-02T05:50:52.918Z,0.20
2023-05-02T05:53:23.958Z,0.10
2023-05-02T05:55:53.296Z,0.10
2023-05-02T05:58:22.921Z,0.20
2023-05-02T06:00:52.426Z,0.20
2023-05-02T06:03:22.476Z,0.10
2023-05-02T06:05:52.001Z,0.15
2023-05-02T06:08:23.009Z,0.20
2023-05-02T06:10:52.501Z,0.20
2023-05-02T06:13:21.969Z,0.30
2023-05-02T06:15:51.551Z,0.20
2023-05-02T06:18:20.943Z,0.10
2023-05-02T06:20:50.479Z,0.20
2023-05-02T06:23:20.304Z,0.10
2023-05-02T06:25:51.562Z,0.10
2023-05-02T06:28:21.082Z,0.10
2023-05-02T06:30:59.545Z,0.10
2023-05-02T06:36:12.631Z,0.20
2023-05-02T06:38:41.978Z,0.15
2023-05-02T06:41:18.370Z,0.10
2023-05-02T06:43:47.952Z,0.43
2023-05-02T06:46:17.710Z,0.10
2023-05-02T06:50:49.731Z,0.10
2023-05-02T06:53:19.226Z,0.10
2023-05-02T06:55:49.432Z,0.32
2023-05-02T06:58:18.801Z,0.10
2023-05-02T07:00:51.135Z,0.10
2023-05-02T07:03:20.696Z,0.10
2023-05-02T07:05:51.822Z,0.10
2023-05-02T07:08:22.757Z,0.10
2023-05-02T07:10:53.056Z,0.10
2023-05-02T07:13:22.553Z,0.10
2023-05-02T07:15:51.886Z,0.10
2023-05-02T07:18:21.469Z,0.10
2023-05-02T07:20:52.591Z,0.30
2023-05-02T07:23:22.296Z,0.15
2023-05-02T07:25:51.707Z,0.10
2023-05-02T07:28:21.122Z,0.38
2023-05-02T07:30:50.856Z,0.13
2023-05-02T07:33:20.228Z,0.10
2023-05-02T07:35:51.281Z,0.20
2023-05-02T07:38:20.942Z,0.10
2023-05-02T07:40:50.488Z,0.10
2023-05-02T07:43:19.798Z,0.20
2023-05-02T07:45:49.277Z,0.20
2023-05-02T07:48:18.985Z,0.10
2023-05-02T07:50:48.521Z,0.13
2023-05-02T07:53:19.363Z,0.10
2023-05-02T07:55:49.508Z,0.10
2023-05-02T07:58:18.828Z,0.20
2023-05-02T08:00:48.405Z,0.20
2023-05-02T08:03:18.214Z,0.22
2023-05-02T08:05:47.763Z,0.30
2023-05-02T08:08:18.684Z,0.10
2023-05-02T08:10:48.193Z,0.28
2023-05-02T08:13:17.623Z,0.20
2023-05-02T08:15:47.356Z,0.20
2023-05-02T08:18:17.228Z,0.25
2023-05-02T08:20:46.526Z,0.30
2023-05-02T08:23:17.343Z,0.50
2023-05-02T08:25:47.065Z,0.30
2023-05-02T08:28:16.304Z,0.50
2023-05-02T08:30:46.574Z,0.20
2023-05-02T08:33:16.321Z,0.20
2023-05-02T08:35:45.752Z,0.30
2023-05-02T08:38:15.232Z,0.20
2023-05-02T08:40:46.290Z,0.20
2023-05-02T08:43:16.226Z,0.30
2023-05-02T08:45:47.408Z,0.28
2023-05-02T08:48:17.522Z,0.30
2023-05-02T08:50:48.648Z,0.20
2023-05-02T08:53:19.983Z,0.20
2023-05-02T08:55:52.071Z,0.20
2023-05-02T08:58:21.507Z,0.20
2023-05-02T09:00:52.593Z,0.20
2023-05-02T09:03:31.020Z,0.20
2023-05-02T09:06:08.472Z,0.20
2023-05-02T09:08:39.387Z,0.20
2023-05-02T09:11:12.613Z,0.30
2023-05-02T09:13:44.322Z,0.20
2023-05-02T09:16:16.119Z,0.27
2023-05-02T09:18:50.287Z,0.30
2023-05-02T09:21:22.565Z,1.10
2023-05-02T09:23:54.127Z,0.20
2023-05-02T09:26:29.496Z,0.50
2023-05-02T09:29:02.624Z,0.20
2023-05-02T09:31:54.867Z,0.27
2023-05-02T09:34:25.626Z,0.20
2023-05-02T09:36:55.302Z,0.28
2023-05-02T09:39:26.573Z,0.20
2023-05-02T09:41:58.142Z,0.20
2023-05-02T09:44:37.973Z,0.20
2023-05-02T09:47:07.514Z,0.30
2023-05-02T09:50:49.538Z,0.20
2023-05-02T09:53:19.141Z,0.30
2023-05-02T09:55:48.615Z,0.20
2023-05-02T09:58:23.924Z,0.20
2023-05-02T10:00:53.625Z,0.30
2023-05-02T10:03:26.091Z,0.20
2023-05-02T10:05:57.897Z,0.57
2023-05-02T10:08:29.568Z,0.20
2023-05-02T10:11:01.010Z,0.20
2023-05-02T10:13:32.584Z,0.30
2023-05-02T10:16:04.989Z,0.67
2023-05-02T10:21:14.628Z,0.30
2023-05-02T10:23:45.226Z,0.20
2023-05-02T10:26:21.584Z,0.40
2023-05-02T10:28:51.657Z,0.30
2023-05-02T10:31:27.603Z,0.30
2023-05-02T10:34:00.227Z,0.10
2023-05-02T10:36:33.730Z,0.10
2023-05-02T10:39:04.879Z,0.20
2023-05-02T10:41:37.073Z,0.17
2023-05-02T10:44:09.091Z,0.10
2023-05-02T10:46:40.850Z,0.20
2023-05-02T10:49:12.173Z,0.10
2023-05-02T10:51:45.498Z,0.10
2023-05-02T10:54:25.368Z,0.10
2023-05-02T10:57:11.420Z,0.38
2023-05-02T10:59:42.780Z,0.20
2023-05-02T11:02:48.716Z,0.17
2023-05-02T11:05:18.408Z,0.20
2023-05-02T11:07:49.243Z,0.20
2023-05-02T11:10:29.621Z,0.10
2023-05-02T11:13:01.436Z,0.10
2023-05-02T11:15:58.651Z,0.20
2023-05-02T11:18:28.099Z,0.20
2023-05-02T11:21:32.055Z,0.20
2023-05-02T11:24:40.263Z,0.13
2023-05-02T11:27:43.700Z,0.20
2023-05-02T11:30:14.227Z,0.20
2023-05-02T11:33:20.379Z,0.20
2023-05-02T11:35:51.378Z,0.10
2023-05-02T11:38:23.271Z,0.10
2023-05-02T11:41:00.279Z,0.32
2023-05-02T11:43:32.359Z,0.20
2023-05-02T11:46:04.486Z,0.52
2023-05-02T11:48:34.464Z,0.10
2023-05-02T11:51:05.722Z,0.10
2023-05-02T11:53:36.567Z,0.20
2023-05-02T11:56:09.248Z,0.20
2023-05-02T11:58:38.643Z,0.20
2023-05-02T12:01:15.576Z,0.38
2023-05-02T12:03:45.983Z,0.20
2023-05-02T12:06:19.481Z,0.10
2023-05-02T12:08:49.971Z,0.35
2023-05-02T12:11:21.433Z,0.20
2023-05-02T12:13:52.004Z,0.10
2023-05-02T12:16:22.529Z,0.10
2023-05-02T12:18:52.393Z,0.10
2023-05-02T12:21:22.078Z,0.10
2023-05-02T12:23:51.768Z,0.20
2023-05-02T12:26:25.754Z,0.20
2023-05-02T12:28:57.350Z,0.10
2023-05-02T12:31:28.281Z,0.10
2023-05-02T12:34:00.427Z,0.28
2023-05-02T12:39:01.781Z,0.20
2023-05-02T12:41:37.406Z,0.20
2023-05-02T12:44:09.291Z,0.20
2023-05-02T12:46:38.741Z,0.10
2023-05-02T12:50:49.853Z,0.10
2023-05-02T12:53:19.182Z,0.32
2023-05-02T12:55:49.121Z,0.10
2023-05-02T12:58:18.489Z,0.20
2023-05-02T13:00:48.117Z,0.20
2023-05-02T13:03:17.656Z,0.20
2023-05-02T13:05:48.451Z,0.20
2023-05-02T13:08:17.826Z,0.20
2023-05-02T13:10:47.248Z,0.20
2023-05-02T13:13:16.801Z,0.20
2023-05-02T13:15:47.882Z,0.30
2023-05-02T13:18:17.204Z,0.30
2023-05-02T13:20:48.057Z,0.20
2023-05-02T13:23:18.091Z,0.20
2023-05-02T13:25:47.449Z,0.20
2023-05-02T13:28:16.995Z,0.30
2023-05-02T13:30:46.300Z,0.20
2023-05-02T13:33:15.840Z,0.50
2023-05-02T13:35:45.219Z,0.20
2023-05-02T13:38:16.020Z,0.30
2023-05-02T13:40:45.399Z,0.30
2023-05-02T13:43:14.840Z,0.30
2023-05-02T13:45:44.355Z,0.25
2023-05-02T13:48:13.756Z,0.20
2023-05-02T13:50:43.257Z,0.20
2023-05-02T13:53:12.783Z,0.20
2023-05-02T13:55:44.941Z,0.10
2023-05-02T13:58:14.309Z,0.17
2023-05-02T14:00:43.777Z,0.20
2023-05-02T14:03:13.835Z,0.20
2023-05-02T14:05:44.030Z,0.25
2023-05-02T14:08:18.582Z,0.20
2023-05-02T14:10:49.567Z,0.13
2023-05-02T14:13:19.030Z,0.35
2023-05-02T14:15:48.500Z,0.40
2023-05-02T14:18:18.171Z,0.30
2023-05-02T14:20:47.626Z,0.10
2023-05-02T14:23:17.150Z,0.20
2023-05-02T14:25:47.980Z,0.10
2023-05-02T14:28:17.780Z,0.30
2023-05-02T14:30:47.155Z,0.20
2023-05-02T14:33:16.509Z,0.20
2023-05-02T14:35:46.127Z,0.20
2023-05-02T14:38:15.467Z,0.30
2023-05-02T14:40:44.915Z,0.40
2023-05-02T14:43:16.235Z,0.20
2023-05-02T14:45:45.620Z,0.13
2023-05-02T14:48:17.101Z,0.43
2023-05-02T14:50:46.661Z,0.20
2023-05-02T14:53:16.460Z,0.10
2023-05-02T14:55:46.484Z,0.20
2023-05-02T14:58:20.843Z,0.17
2023-05-02T15:00:50.827Z,0.15
2023-05-02T15:03:20.438Z,0.10
2023-05-02T15:05:50.153Z,0.10
2023-05-02T15:08:19.797Z,0.20
2023-05-02T15:10:49.239Z,0.10
2023-05-02T15:13:20.046Z,0.25
2023-05-02T15:15:50.220Z,0.20
2023-05-02T15:18:19.730Z,0.10
2023-05-02T15:20:49.148Z,0.20
2023-05-02T15:23:18.704Z,0.20
2023-05-02T15:25:48.224Z,0.30
2023-05-02T15:28:19.125Z,0.13
2023-05-02T15:30:49.283Z,0.10
2023-05-02T15:33:18.767Z,0.20
2023-05-02T15:35:56.810Z,0.20
2023-05-02T15:38:26.707Z,0.40
2023-05-02T15:40:57.368Z,0.55
2023-05-02T15:43:29.414Z,0.75
2023-05-02T15:46:01.925Z,0.57
2023-05-02T15:50:49.898Z,0.20
2023-05-02T15:53:19.883Z,1.75
2023-05-02T15:55:49.591Z,0.50
2023-05-02T15:58:19.422Z,0.90
2023-05-02T16:00:49.006Z,0.20
2023-05-02T16:03:18.310Z,0.60
2023-05-02T16:05:49.225Z,1.70
2023-05-02T16:08:18.587Z,1.92
2023-05-02T16:10:48.460Z,3.15
2023-05-02T16:13:17.886Z,0.17
2023-05-02T16:15:48.386Z,0.45
2023-05-02T16:18:18.049Z,0.80
2023-05-02T16:20:50.263Z,0.60
2023-05-02T16:23:19.598Z,0.70
2023-05-02T16:25:48.985Z,0.30
2023-05-02T16:28:18.334Z,0.40
2023-05-02T16:30:47.686Z,0.20
2023-05-02T16:33:16.975Z,0.65
2023-05-02T16:35:47.977Z,0.32
2023-05-02T16:38:17.325Z,0.50
2023-05-02T16:40:47.111Z,0.30
2023-05-02T16:43:17.226Z,0.30
2023-05-02T16:45:47.436Z,0.50
2023-05-02T16:48:16.836Z,1.90
2023-05-02T16:50:47.743Z,1.20
2023-05-02T16:53:17.112Z,4.35
2023-05-02T16:55:46.630Z,5.00
2023-05-02T16:58:16.004Z,2.15
2023-05-02T17:00:45.666Z,2.63
2023-05-02T17:03:15.388Z,1.35
2023-05-02T17:05:44.833Z,0.55
2023-05-02T17:08:17.121Z,0.50
2023-05-02T17:10:51.664Z,1.10
2023-05-02T17:13:21.183Z,0.35
2023-05-02T17:15:51.421Z,0.98
2023-05-02T17:18:22.116Z,0.80
2023-05-02T17:20:51.783Z,0.70
2023-05-02T17:23:22.968Z,0.70
2023-05-02T17:25:53.301Z,1.13
2023-05-02T17:28:22.734Z,0.40
2023-05-02T17:30:54.788Z,1.10
2023-05-02T17:33:25.580Z,1.25
2023-05-02T17:35:56.320Z,0.40
2023-05-02T17:38:27.484Z,0.50
2023-05-02T17:40:56.964Z,0.43
2023-05-02T17:43:26.379Z,0.75
2023-05-02T17:45:55.850Z,0.32
2023-05-02T17:48:25.335Z,0.80
2023-05-02T17:50:56.249Z,0.50
2023-05-02T17:53:27.383Z,0.40
2023-05-02T17:55:56.880Z,0.65
2023-05-02T17:58:27.969Z,0.60
2023-05-02T18:00:57.298Z,0.50
2023-05-02T18:03:27.211Z,0.50
2023-05-02T18:05:56.824Z,0.57
2023-05-02T18:08:27.849Z,0.57
2023-05-02T18:10:57.245Z,0.40
2023-05-02T18:13:26.721Z,1.15
2023-05-02T18:16:01.643Z,0.70
2023-05-02T18:18:31.154Z,0.40
2023-05-02T18:21:00.907Z,0.90
2023-05-02T18:23:31.768Z,0.63
2023-05-02T18:26:01.364Z,0.93
2023-05-02T18:28:30.917Z,0.30
2023-05-02T18:31:00.383Z,0.40
2023-05-02T18:33:29.801Z,0.80
2023-05-02T18:35:59.304Z,0.80
2023-05-02T18:38:28.586Z,0.57
2023-05-02T18:40:59.547Z,0.45
2023-05-02T18:43:28.888Z,0.90
2023-05-02T18:45:58.349Z,0.60
2023-05-02T18:50:49.138Z,0.30
2023-05-02T18:53:19.642Z,0.40
2023-05-02T18:55:49.325Z,0.38
2023-05-02T18:58:18.764Z,0.30
2023-05-02T19:00:48.001Z,0.82
2023-05-02T19:03:17.567Z,0.32
2023-05-02T19:05:50.357Z,0.52
2023-05-02T19:10:48.826Z,0.50
2023-05-02T19:13:19.528Z,0.52
2023-05-02T19:15:48.854Z,0.30
2023-05-02T19:18:18.241Z,0.90
2023-05-02T19:20:48.954Z,0.40
2023-05-02T19:23:20.693Z,0.30
2023-05-02T19:25:50.408Z,0.57
2023-05-02T19:28:19.941Z,0.28
2023-05-02T19:30:49.238Z,0.40
2023-05-02T19:33:18.583Z,0.20
2023-05-02T19:35:49.306Z,0.85
2023-05-02T19:38:18.664Z,0.25
2023-05-02T19:40:48.099Z,0.50
2023-05-02T19:43:17.430Z,0.40
2023-05-02T19:45:46.795Z,0.30
2023-05-02T19:48:16.556Z,0.30
2023-05-02T19:50:47.410Z,0.63
2023-05-02T19:53:16.712Z,0.50
2023-05-02T19:55:46.174Z,0.35
2023-05-02T19:58:15.517Z,0.32
2023-05-02T20:00:46.352Z,0.40
2023-05-02T20:03:15.842Z,0.40
2023-05-02T20:05:45.473Z,0.20
2023-05-02T20:08:16.492Z,0.40
2023-05-02T20:10:46.048Z,0.32
2023-05-02T20:13:15.486Z,0.20
2023-05-02T20:15:44.809Z,0.25
2023-05-02T20:18:14.188Z,0.30
2023-05-02T20:20:43.515Z,0.50
2023-05-02T20:23:12.785Z,0.65
2023-05-02T20:25:43.972Z,0.47
2023-05-02T20:28:13.647Z,0.30
2023-05-02T20:30:44.269Z,0.57
2023-05-02T20:33:16.068Z,0.50
2023-05-02T20:35:46.337Z,0.50
2023-05-02T20:38:17.966Z,0.50
2023-05-02T20:40:48.782Z,0.45
2023-05-02T20:43:19.069Z,0.45
2023-05-02T20:45:49.409Z,0.40
2023-05-02T20:48:19.440Z,0.50
2023-05-02T20:50:57.908Z,0.80
2023-05-02T20:53:27.216Z,0.20
2023-05-02T20:55:58.081Z,0.50
2023-05-02T20:58:27.610Z,0.47
2023-05-02T21:00:57.003Z,0.40
2023-05-02T21:03:26.676Z,0.30
2023-05-02T21:05:59.403Z,0.47
2023-05-02T21:08:28.868Z,0.70
2023-05-02T21:10:59.711Z,0.40
2023-05-02T21:13:29.063Z,0.38
2023-05-02T21:15:58.554Z,0.30
2023-05-02T21:18:27.993Z,1.13
2023-05-02T21:20:57.462Z,0.40
2023-05-02T21:23:27.037Z,1.27
2023-05-02T21:25:56.495Z,1.80
2023-05-02T21:28:27.742Z,2.47
2023-05-02T21:30:57.203Z,6.93
2023-05-02T21:33:26.703Z,3.05
2023-05-02T21:35:59.882Z,3.00
2023-05-02T21:38:29.700Z,2.45
2023-05-02T21:41:03.386Z,6.10
2023-05-02T21:43:39.180Z,8.13
2023-05-02T21:46:08.840Z,2.13
2023-05-02T21:50:49.080Z,2.38
2023-05-02T21:53:18.410Z,1.88
2023-05-02T21:55:47.711Z,3.25
2023-05-02T21:58:17.105Z,1.50
2023-05-02T22:00:46.622Z,1.20
2023-05-02T22:03:17.091Z,0.60
2023-05-02T22:05:50.496Z,0.50
2023-05-02T22:08:20.659Z,0.45
2023-05-02T22:10:50.121Z,0.30
2023-05-02T22:13:19.781Z,0.43
2023-05-02T22:15:50.997Z,0.55
2023-05-02T22:18:20.562Z,0.50
2023-05-02T22:20:51.571Z,0.50
2023-05-02T22:23:20.943Z,0.50
2023-05-02T22:25:50.400Z,0.32
2023-05-02T22:28:19.679Z,0.40
2023-05-02T22:30:49.044Z,0.30
2023-05-02T22:33:18.346Z,0.50
2023-05-02T22:35:49.356Z,0.35
2023-05-02T22:38:18.766Z,0.20
2023-05-02T22:40:48.145Z,0.50
2023-05-02T22:43:17.849Z,0.30
2023-05-02T22:45:47.468Z,0.40
2023-05-02T22:48:16.825Z,0.60
2023-05-02T22:50:50.179Z,0.35
2023-05-02T22:53:21.797Z,0.60
2023-05-02T22:55:51.944Z,0.28
2023-05-02T22:58:21.342Z,0.52
2023-05-02T23:00:50.782Z,0.50
2023-05-02T23:03:20.248Z,0.40
2023-05-02T23:05:51.315Z,0.63
2023-05-02T23:08:21.102Z,0.40
2023-05-02T23:10:50.642Z,0.40
2023-05-02T23:13:20.102Z,0.20
2023-05-02T23:15:55.156Z,0.47
2023-05-02T23:18:24.733Z,0.35
2023-05-02T23:20:55.675Z,0.32
2023-05-02T23:23:25.100Z,0.50
2023-05-02T23:25:54.578Z,0.30
2023-05-02T23:28:24.086Z,0.40
2023-05-02T23:30:53.903Z,0.40
2023-05-02T23:33:23.371Z,0.50
2023-05-02T23:35:54.829Z,0.40
2023-05-02T23:38:24.482Z,0.60
2023-05-02T23:40:54.604Z,0.43
2023-05-02T23:43:24.563Z,0.30
2023-05-02T23:45:53.903Z,0.40
2023-05-02T23:48:23.507Z,0.30
2023-05-02T23:50:54.358Z,0.30
2023-05-02T23:53:23.871Z,0.38
2023-05-02T23:55:53.319Z,0.35
2023-05-02T23:58:22.808Z,0.35
